KAMN/AMN METAR and TAF weather

Enter ICAO airport designator
Station Type Date Time Source
KAMN METAR 2018/04/23 11:20 UTC NOAA

KAMN 231120Z AUTO 00000KT 10SM CLR 03/00 A3031 RMK AO2 T00261003


Station Type Date Time Source
KAMN Decoded METAR 2018/04/23 11:20 UTC NOAA

Alma, Gratiot Community Airport, MI, United States (KAMN) 43-19-19N 084-41-16W
Apr 23, 2018 - 07:20 AM EDT / 2018.04.23 1120 UTC
Wind: Calm:0
Visibility: 10 mile(s):0
Sky conditions: clear
Temperature: 36.7 F (2.6 C)
Dew Point: 31.5 F (-0.3 C)
Relative Humidity: 81%
Pressure (altimeter): 30.31 in. Hg (1026 hPa)
ob: KAMN 231120Z AUTO 00000KT 10SM CLR 03/00 A3031 RMK AO2 T00261003
cycle: 11

Station Type Date Time Source
KAMN TAF UTC NOAA

Error!


Example: see airport list